Time;durP1;ratioP1;P1;durP2;ratioP2;P2;SDS_P1;SDS_P2;PMS_P1;PMS_P2;Temp;Humidity;BMP_temperature;BMP_pressure;BME280_temperature;BME280_humidity;BME280_pressure;Samples;Min_cycle;Max_cycle;Signal;HPM_P1;HPM_P2
2023/12/30 00:00:29;;;;;;;;;0.50;0.50;;;;;9.78;82.17;99147.19;5076457;28;8849;-59
2023/12/30 00:02:57;;;;;;;;;0.00;0.00;;;;;9.78;82.13;99144.53;5084354;28;8902;-59
2023/12/30 00:05:28;;;;;;;;;0.75;0.75;;;;;9.77;81.98;99156.97;5097092;28;8814;-59
2023/12/30 00:07:55;;;;;;;;;0.50;0.50;;;;;9.75;82.24;99168.72;5097003;28;8818;-59
2023/12/30 00:10:23;;;;;;;;;0.00;0.00;;;;;9.72;82.10;99161.84;5096622;28;8822;-59
2023/12/30 00:12:51;;;;;;;;;0.00;0.00;;;;;9.73;82.39;99176.81;5095840;28;8814;-59
2023/12/30 00:15:20;;;;;;;;;1.00;1.00;;;;;9.72;82.09;99171.66;5095360;28;8964;-58
2023/12/30 00:17:49;;;;;;;;;0.00;0.00;;;;;9.69;82.19;99170.09;5095965;28;8818;-59
2023/12/30 00:20:16;;;;;;;;;0.25;0.00;;;;;9.68;81.63;99183.53;5094440;28;8830;-58
2023/12/30 00:22:44;;;;;;;;;0.00;0.00;;;;;9.69;81.94;99179.88;5096147;28;8826;-57
2023/12/30 00:25:12;;;;;;;;;0.00;0.00;;;;;9.68;81.75;99184.38;5096043;28;8821;-57
2023/12/30 00:27:40;;;;;;;;;0.00;0.00;;;;;9.68;82.05;99176.41;5095807;28;9531;-58
2023/12/30 00:30:08;;;;;;;;;0.50;0.50;;;;;9.66;81.34;99181.00;5096089;28;9518;-58
2023/12/30 00:32:36;;;;;;;;;0.00;0.00;;;;;9.65;81.86;99191.78;5095344;28;8818;-58
2023/12/30 00:35:04;;;;;;;;;0.00;0.00;;;;;9.63;81.84;99178.63;5095532;28;8876;-59
2023/12/30 00:37:31;;;;;;;;;0.00;0.00;;;;;9.62;81.62;99184.91;5094726;28;8952;-57
2023/12/30 00:40:00;;;;;;;;;0.00;0.00;;;;;9.61;81.55;99199.19;5095887;28;8814;-59
2023/12/30 00:42:27;;;;;;;;;0.00;0.00;;;;;9.61;81.69;99204.50;5096326;28;8925;-58
2023/12/30 00:44:55;;;;;;;;;0.00;0.00;;;;;9.61;82.12;99207.16;5096162;28;8822;-58
2023/12/30 00:47:23;;;;;;;;;0.00;0.00;;;;;9.60;81.59;99207.28;5096347;28;8838;-59
2023/12/30 00:49:51;;;;;;;;;1.00;1.00;;;;;9.58;81.46;99204.75;5095775;28;8849;-59
2023/12/30 00:52:18;;;;;;;;;0.50;0.50;;;;;9.59;81.39;99198.50;5094826;28;8821;-58
2023/12/30 00:54:48;;;;;;;;;0.00;0.00;;;;;9.58;81.31;99209.25;5093885;28;8918;-58
2023/12/30 00:57:18;;;;;;;;;1.00;0.50;;;;;9.57;81.29;99196.94;5094702;28;8848;-59
2023/12/30 00:59:45;;;;;;;;;1.50;0.50;;;;;9.54;81.64;99208.66;5094625;28;8838;-59
2023/12/30 01:02:15;;;;;;;;;0.00;0.00;;;;;9.53;81.74;99214.09;5094840;28;8976;-57
2023/12/30 01:04:42;;;;;;;;;0.25;0.00;;;;;9.53;81.93;99220.28;5094275;28;8822;-58
2023/12/30 01:07:11;;;;;;;;;1.00;1.00;;;;;9.50;80.88;99228.50;5094842;28;8833;-57
2023/12/30 01:09:38;;;;;;;;;0.00;0.00;;;;;9.48;81.57;99233.09;5094107;28;8918;-59
2023/12/30 01:12:06;;;;;;;;;0.00;0.00;;;;;9.47;81.28;99234.09;5094311;28;8826;-59
2023/12/30 01:14:34;;;;;;;;;3.00;0.50;;;;;9.44;81.36;99247.66;5095545;28;8865;-57
2023/12/30 01:17:02;;;;;;;;;0.75;0.75;;;;;9.38;81.70;99236.69;5099623;28;8820;-57
2023/12/30 01:19:29;;;;;;;;;0.00;0.00;;;;;9.32;81.49;99240.72;5116629;28;8830;-59
2023/12/30 01:21:57;;;;;;;;;0.75;0.75;;;;;9.26;81.26;99251.03;5116196;28;8815;-59
2023/12/30 01:24:26;;;;;;;;;0.50;0.00;;;;;9.21;81.99;99259.41;5116160;28;8816;-59
2023/12/30 01:26:54;;;;;;;;;0.00;0.00;;;;;9.17;81.58;99255.31;5116306;28;8954;-59
2023/12/30 01:29:22;;;;;;;;;0.00;0.00;;;;;9.13;81.85;99261.00;5077042;28;8816;-59
2023/12/30 01:31:50;;;;;;;;;0.00;0.00;;;;;9.13;81.12;99248.56;5091956;28;8842;-59
2023/12/30 01:34:18;;;;;;;;;0.00;0.00;;;;;9.13;81.71;99239.75;5094613;28;8818;-59
2023/12/30 01:36:45;;;;;;;;;0.00;0.00;;;;;9.14;81.42;99257.38;5095241;28;8818;-58
2023/12/30 01:39:13;;;;;;;;;1.00;1.00;;;;;9.16;81.24;99245.66;5095022;28;8822;-58
2023/12/30 01:41:41;;;;;;;;;0.00;0.00;;;;;9.18;81.60;99258.81;5097950;28;8826;-60
2023/12/30 01:44:09;;;;;;;;;0.00;0.00;;;;;9.16;81.20;99261.59;5098609;28;8850;-60
2023/12/30 01:46:37;;;;;;;;;0.75;0.75;;;;;9.16;81.45;99263.41;5097507;28;8973;-59
2023/12/30 01:49:04;;;;;;;;;1.25;1.25;;;;;9.15;80.92;99253.75;5098718;28;8858;-59
2023/12/30 01:51:32;;;;;;;;;0.00;0.00;;;;;9.11;81.45;99282.38;5099642;28;8841;-59
2023/12/30 01:54:00;;;;;;;;;3.00;1.00;;;;;9.09;81.71;99287.00;5099009;28;8830;-57
2023/12/30 01:56:28;;;;;;;;;0.00;0.00;;;;;9.07;81.40;99298.69;5099322;28;8881;-58
2023/12/30 01:58:55;;;;;;;;;0.00;0.00;;;;;9.03;81.46;99297.28;5099501;28;8811;-59
2023/12/30 02:01:23;;;;;;;;;0.00;0.00;;;;;8.97;81.20;99298.63;5101180;28;8857;-57
2023/12/30 02:03:51;;;;;;;;;0.00;0.00;;;;;8.97;81.44;99317.22;5098943;28;8806;-58
2023/12/30 02:06:19;;;;;;;;;0.50;0.50;;;;;8.96;81.54;99323.50;5099244;28;8883;-57
2023/12/30 02:08:47;;;;;;;;;0.00;0.00;;;;;8.94;81.56;99319.28;5097877;28;8854;-57
2023/12/30 02:11:15;;;;;;;;;0.00;0.00;;;;;8.90;81.32;99324.00;5098914;28;8814;-58
2023/12/30 02:13:43;;;;;;;;;0.00;0.00;;;;;8.87;81.08;99316.28;5103389;28;8842;-58
2023/12/30 02:16:11;;;;;;;;;0.00;0.00;;;;;8.86;81.54;99317.28;5118888;28;8854;-58
2023/12/30 02:18:39;;;;;;;;;0.00;0.00;;;;;8.87;81.45;99323.41;5104890;28;8820;-58
2023/12/30 02:21:07;;;;;;;;;1.00;1.00;;;;;8.89;81.38;99314.34;5078599;28;8850;-57
2023/12/30 02:23:35;;;;;;;;;0.00;0.00;;;;;8.87;81.01;99316.28;5078818;28;8871;-57
2023/12/30 02:26:03;;;;;;;;;0.00;0.00;;;;;8.85;81.38;99320.91;5078830;28;8826;-59
2023/12/30 02:28:30;;;;;;;;;0.00;0.00;;;;;8.81;81.35;99330.06;5078635;28;8847;-59
2023/12/30 02:30:59;;;;;;;;;0.00;0.00;;;;;8.80;81.30;99323.06;5098461;28;8958;-57
2023/12/30 02:33:26;;;;;;;;;0.25;0.00;;;;;8.83;80.95;99320.16;5119171;28;8827;-57
2023/12/30 02:35:54;;;;;;;;;0.00;0.00;;;;;8.86;80.99;99338.50;5103110;28;8917;-57
2023/12/30 02:38:22;;;;;;;;;3.00;1.00;;;;;8.89;80.98;99327.63;5078403;28;8824;-58
2023/12/30 02:40:50;;;;;;;;;0.00;0.00;;;;;8.93;80.82;99328.22;5078166;28;8882;-57
2023/12/30 02:43:17;;;;;;;;;0.00;0.00;;;;;8.96;80.73;99327.97;5078295;28;8850;-59
2023/12/30 02:45:45;;;;;;;;;0.25;0.25;;;;;8.97;80.51;99327.00;5078310;28;8817;-59
2023/12/30 02:48:13;;;;;;;;;0.00;0.00;;;;;8.99;81.02;99328.56;5078335;28;8832;-56
2023/12/30 02:50:40;;;;;;;;;0.00;0.00;;;;;8.97;80.96;99338.44;5078169;28;8832;-58
2023/12/30 02:53:10;;;;;;;;;0.00;0.00;;;;;8.93;80.97;99337.03;5077606;28;8831;-57
2023/12/30 02:55:38;;;;;;;;;0.00;0.00;;;;;8.89;80.73;99319.66;5077361;28;8874;-58
2023/12/30 02:58:05;;;;;;;;;1.00;1.00;;;;;8.88;80.92;99325.94;5077995;28;8856;-57
2023/12/30 03:00:33;;;;;;;;;0.50;0.50;;;;;8.88;80.91;99325.94;5078099;28;8831;-58
2023/12/30 03:03:01;;;;;;;;;0.50;0.50;;;;;8.85;81.04;99326.22;5078240;28;8832;-57
2023/12/30 03:05:29;;;;;;;;;0.50;0.00;;;;;8.81;80.95;99313.31;5078091;28;8952;-58
2023/12/30 03:07:58;;;;;;;;;0.00;0.00;;;;;8.78;80.87;99322.38;5091149;28;8825;-59
2023/12/30 03:10:26;;;;;;;;;1.00;0.00;;;;;8.74;81.24;99333.38;5096120;28;8936;-58
2023/12/30 03:12:54;;;;;;;;;0.75;0.75;;;;;8.68;80.81;99334.69;5097327;28;8826;-58
2023/12/30 03:15:22;;;;;;;;;0.00;0.00;;;;;8.68;81.38;99339.16;5096543;28;8891;-57
2023/12/30 03:17:49;;;;;;;;;0.00;0.00;;;;;8.72;81.15;99340.59;5097968;28;8833;-58
2023/12/30 03:20:18;;;;;;;;;0.00;0.00;;;;;8.76;80.91;99352.66;5096397;28;8806;-57
2023/12/30 03:22:45;;;;;;;;;0.00;0.00;;;;;8.76;81.20;99353.53;5096419;28;8826;-60
2023/12/30 03:25:13;;;;;;;;;1.00;1.00;;;;;8.78;81.15;99350.72;5096615;28;8806;-59
2023/12/30 03:27:40;;;;;;;;;0.00;0.00;;;;;8.78;80.89;99343.59;5098006;28;9490;-57
2023/12/30 03:30:08;;;;;;;;;0.75;0.75;;;;;8.81;80.76;99350.47;5096695;28;8906;-57
2023/12/30 03:32:36;;;;;;;;;0.50;0.50;;;;;8.82;81.40;99339.72;5096466;28;8848;-57
2023/12/30 03:35:04;;;;;;;;;0.00;0.00;;;;;8.84;80.94;99353.72;5096533;28;8903;-57
2023/12/30 03:37:32;;;;;;;;;0.00;0.00;;;;;8.85;80.92;99343.94;5097214;28;8822;-58
2023/12/30 03:40:00;;;;;;;;;3.00;2.00;;;;;8.86;80.68;99343.81;5097329;28;8806;-58
2023/12/30 03:42:28;;;;;;;;;1.00;1.00;;;;;8.87;80.94;99342.84;5097052;28;8840;-59
2023/12/30 03:44:56;;;;;;;;;1.00;1.00;;;;;8.88;80.79;99346.34;5100896;28;8931;-57
2023/12/30 03:47:24;;;;;;;;;1.75;1.75;;;;;8.88;81.06;99347.19;5115327;28;9507;-58
2023/12/30 03:49:52;;;;;;;;;1.00;1.00;;;;;8.88;80.95;99347.19;5112675;28;8888;-59
2023/12/30 03:52:19;;;;;;;;;0.50;0.50;;;;;8.84;81.11;99350.22;5097458;28;8826;-59
2023/12/30 03:54:47;;;;;;;;;0.00;0.00;;;;;8.83;80.80;99357.31;5097204;28;8826;-57
2023/12/30 03:57:15;;;;;;;;;0.00;0.00;;;;;8.83;80.75;99359.16;5096727;28;8911;-57
2023/12/30 03:59:43;;;;;;;;;1.00;1.00;;;;;8.84;80.83;99352.88;5097302;28;9464;-59
2023/12/30 04:02:12;;;;;;;;;0.00;0.00;;;;;8.84;81.25;99356.38;5090487;28;8812;-57
2023/12/30 04:04:39;;;;;;;;;0.00;0.00;;;;;8.84;80.92;99360.84;5117259;28;8859;-58
2023/12/30 04:07:07;;;;;;;;;0.00;0.00;;;;;8.83;80.92;99353.84;5117505;28;8831;-57
2023/12/30 04:09:35;;;;;;;;;1.00;1.00;;;;;8.83;81.13;99356.50;5117369;28;8819;-57
2023/12/30 04:12:03;;;;;;;;;0.00;0.00;;;;;8.85;80.70;99363.38;5117068;28;8808;-57
2023/12/30 04:14:31;;;;;;;;;0.00;0.00;;;;;8.86;80.70;99358.88;5117491;28;8848;-59
2023/12/30 04:16:58;;;;;;;;;3.00;2.50;;;;;8.84;80.82;99345.75;5116148;28;8836;-59
2023/12/30 04:19:26;;;;;;;;;0.00;0.00;;;;;8.80;80.99;99365.56;5076922;28;8856;-60
2023/12/30 04:21:54;;;;;;;;;0.00;0.00;;;;;8.78;81.39;99361.34;5076606;28;8821;-58
2023/12/30 04:24:22;;;;;;;;;0.00;0.00;;;;;8.80;80.67;99370.03;5076371;28;8824;-58
2023/12/30 04:26:51;;;;;;;;;1.00;1.00;;;;;8.81;80.77;99361.94;5076388;28;8938;-60
2023/12/30 04:29:18;;;;;;;;;0.00;0.00;;;;;8.79;81.24;99363.00;5076453;28;8850;-58
2023/12/30 04:32:01;;;;;;;;;1.00;1.00;;;;;8.74;81.38;99368.69;5076265;28;8844;-58
2023/12/30 04:34:32;;;;;;;;;0.00;0.00;;;;;8.72;81.15;99369.78;5077051;28;8847;-57
2023/12/30 04:37:00;;;;;;;;;0.50;0.00;;;;;8.71;81.16;99382.22;5076016;28;8866;-57
2023/12/30 04:39:28;;;;;;;;;3.25;1.50;;;;;8.71;81.02;99387.53;5088341;28;8810;-58
2023/12/30 04:41:55;;;;;;;;;0.00;0.00;;;;;8.72;81.16;99375.09;5096300;28;8854;-59
2023/12/30 04:44:24;;;;;;;;;1.00;1.00;;;;;8.75;81.13;99373.03;5096271;28;8850;-57
2023/12/30 04:46:51;;;;;;;;;0.00;0.00;;;;;8.76;80.80;99369.44;5093065;28;8803;-59
2023/12/30 04:49:19;;;;;;;;;1.00;1.00;;;;;8.77;81.15;99368.47;5095530;28;9485;-60
2023/12/30 04:51:47;;;;;;;;;0.00;0.00;;;;;8.80;81.33;99370.03;5094737;28;8842;-59
2023/12/30 04:54:15;;;;;;;;;0.00;0.00;;;;;8.81;80.95;99372.53;5098734;28;8820;-58
2023/12/30 04:56:42;;;;;;;;;0.00;0.00;;;;;8.81;80.67;99377.84;5106408;28;8816;-57
2023/12/30 04:59:10;;;;;;;;;0.00;0.00;;;;;8.83;80.93;99373.25;5116634;28;8815;-59
2023/12/30 05:01:38;;;;;;;;;0.00;0.00;;;;;8.84;81.08;99377.63;5098680;28;8802;-59
2023/12/30 05:04:06;;;;;;;;;0.00;0.00;;;;;8.84;81.08;99371.47;5096414;28;8817;-57
2023/12/30 05:06:33;;;;;;;;;0.00;0.00;;;;;8.81;81.00;99374.38;5096118;28;8944;-59
2023/12/30 05:09:03;;;;;;;;;0.75;0.00;;;;;8.79;80.82;99371.84;5087370;28;8824;-59
2023/12/30 05:11:30;;;;;;;;;0.75;0.75;;;;;8.79;81.01;99395.72;5075708;28;8816;-58
2023/12/30 05:13:58;;;;;;;;;0.00;0.00;;;;;8.78;80.91;99396.69;5114015;28;9526;-59
2023/12/30 05:16:26;;;;;;;;;0.25;0.25;;;;;8.75;80.87;99386.31;5116248;28;8871;-57
2023/12/30 05:18:54;;;;;;;;;0.50;0.50;;;;;8.72;80.69;99393.69;5120526;28;8811;-57
2023/12/30 05:21:21;;;;;;;;;1.00;1.00;;;;;8.66;81.20;99395.03;5120578;28;8835;-57
2023/12/30 05:23:49;;;;;;;;;1.00;1.00;;;;;8.62;80.92;99404.22;5120674;28;8820;-59
2023/12/30 05:26:17;;;;;;;;;0.00;0.00;;;;;8.64;81.22;99404.06;5097921;28;8840;-60
2023/12/30 05:28:45;;;;;;;;;0.00;0.00;;;;;8.65;80.69;99405.78;5079913;28;8840;-58
2023/12/30 05:31:13;;;;;;;;;0.00;0.00;;;;;8.67;80.86;99409.97;5079751;28;8829;-59
2023/12/30 05:33:41;;;;;;;;;0.25;0.25;;;;;8.69;80.68;99416.03;5079679;28;8808;-60
2023/12/30 05:36:09;;;;;;;;;0.50;0.50;;;;;8.69;80.57;99416.03;5079264;28;8842;-59
2023/12/30 05:38:37;;;;;;;;;0.50;0.50;;;;;8.69;80.59;99418.69;5079145;28;8979;-58
2023/12/30 05:41:04;;;;;;;;;0.00;0.00;;;;;8.68;80.60;99440.84;5078880;28;8832;-59
2023/12/30 05:43:32;;;;;;;;;1.50;1.00;;;;;8.71;80.57;99429.16;5080170;28;8844;-57
2023/12/30 05:46:00;;;;;;;;;6.00;4.50;;;;;8.71;80.41;99430.00;5079516;28;9510;-59
2023/12/30 05:48:28;;;;;;;;;0.75;0.75;;;;;8.69;80.83;99431.09;5081387;28;9553;-60
2023/12/30 05:50:56;;;;;;;;;0.25;0.25;;;;;8.68;80.38;99429.41;5099299;28;8830;-57
2023/12/30 05:53:23;;;;;;;;;0.75;0.75;;;;;8.66;80.77;99431.34;5099643;28;8821;-59
2023/12/30 05:55:52;;;;;;;;;0.00;0.00;;;;;8.61;80.85;99429.06;5098836;28;8828;-60
2023/12/30 05:58:20;;;;;;;;;0.67;0.00;;;;;8.60;80.56;99435.31;5098694;28;8890;-60
2023/12/30 06:00:48;;;;;;;;;0.25;0.25;;;;;8.57;80.59;99435.56;5098800;28;8846;-58
2023/12/30 06:03:16;;;;;;;;;0.00;0.00;;;;;8.54;80.98;99430.53;5098480;28;8856;-60
2023/12/30 06:05:44;;;;;;;;;1.00;0.25;;;;;8.52;80.91;99434.25;5098633;28;8822;-57
2023/12/30 06:08:12;;;;;;;;;0.00;0.00;;;;;8.50;81.18;99431.72;5102105;28;8810;-59
2023/12/30 06:10:40;;;;;;;;;1.25;0.75;;;;;8.51;80.73;99438.72;5098939;28;8910;-58
2023/12/30 06:13:08;;;;;;;;;0.00;0.00;;;;;8.51;81.02;99446.66;5099988;28;8854;-59
2023/12/30 06:15:36;;;;;;;;;0.75;0.75;;;;;8.54;80.83;99451.75;5098748;28;8826;-57
2023/12/30 06:18:03;;;;;;;;;0.00;0.00;;;;;8.56;80.66;99444.50;5102259;28;8829;-57
2023/12/30 06:20:31;;;;;;;;;0.25;0.25;;;;;8.54;80.92;99449.09;5098483;28;8888;-57
2023/12/30 06:22:59;;;;;;;;;0.00;0.00;;;;;8.54;80.85;99465.00;5098370;28;8844;-58
2023/12/30 06:25:27;;;;;;;;;0.75;0.50;;;;;8.54;80.91;99458.84;5099072;28;8912;-58
2023/12/30 06:27:55;;;;;;;;;0.50;0.00;;;;;8.53;80.81;99451.84;5102044;28;8813;-58
2023/12/30 06:30:23;;;;;;;;;0.00;0.00;;;;;8.52;81.03;99460.78;5110506;28;8801;-58
2023/12/30 06:32:51;;;;;;;;;2.50;2.50;;;;;8.53;80.94;99463.28;5118772;28;8824;-59
2023/12/30 06:35:18;;;;;;;;;0.00;0.00;;;;;8.55;80.97;99461.38;5096985;28;8891;-58
2023/12/30 06:37:46;;;;;;;;;0.00;0.00;;;;;8.57;80.69;99466.56;5098064;28;8845;-60
2023/12/30 06:40:14;;;;;;;;;0.00;0.00;;;;;8.59;80.54;99475.25;5098686;28;8810;-57
2023/12/30 06:42:41;;;;;;;;;0.00;0.00;;;;;8.60;80.67;99479.59;5098053;28;8842;-58
2023/12/30 06:45:09;;;;;;;;;0.25;0.25;;;;;8.60;80.73;99469.81;5097984;28;9511;-57
2023/12/30 06:47:37;;;;;;;;;0.25;0.25;;;;;8.57;80.74;99480.69;5117377;28;9250;-59
2023/12/30 06:50:05;;;;;;;;;0.50;0.50;;;;;8.47;80.93;99478.88;5115652;28;8820;-59
2023/12/30 06:52:33;;;;;;;;;1.00;1.00;;;;;8.38;81.10;99506.13;5077080;28;8950;-57
2023/12/30 06:55:01;;;;;;;;;3.00;1.00;;;;;8.31;81.60;99502.25;5077028;28;8839;-60
2023/12/30 06:57:45;;;;;;;;;0.75;0.00;;;;;8.23;81.35;99494.91;5074390;28;8870;-58
2023/12/30 07:00:13;;;;;;;;;0.50;0.25;;;;;8.21;81.87;99494.16;5075557;28;8862;-57
2023/12/30 07:02:41;;;;;;;;;2.00;0.75;;;;;8.22;81.57;99502.97;5075227;28;8869;-59
2023/12/30 07:05:08;;;;;;;;;0.00;0.00;;;;;8.22;81.86;99511.75;5075504;28;8840;-56
2023/12/30 07:07:36;;;;;;;;;1.00;1.00;;;;;8.22;81.90;99503.78;5076404;28;8832;-59
2023/12/30 07:10:04;;;;;;;;;0.00;0.00;;;;;8.21;81.71;99515.38;5075208;28;8917;-57
2023/12/30 07:12:31;;;;;;;;;1.00;1.00;;;;;8.19;82.07;99509.34;5076227;28;8863;-58
2023/12/30 07:14:59;;;;;;;;;0.00;0.00;;;;;8.19;81.84;99516.44;5075797;28;8832;-58
2023/12/30 07:17:27;;;;;;;;;2.50;0.75;;;;;8.20;82.11;99508.38;5076600;28;8859;-57
2023/12/30 07:19:56;;;;;;;;;0.50;0.50;;;;;8.18;81.39;99504.97;5076948;28;8812;-57
2023/12/30 07:22:24;;;;;;;;;0.00;0.00;;;;;8.16;81.49;99506.91;5083929;28;8829;-58
2023/12/30 07:24:52;;;;;;;;;0.25;0.25;;;;;8.15;81.50;99521.09;5096907;28;8944;-58
2023/12/30 07:27:20;;;;;;;;;1.00;1.00;;;;;8.14;81.63;99529.19;5097507;28;9472;-59
2023/12/30 07:29:48;;;;;;;;;0.00;0.00;;;;;8.15;81.34;99526.41;5093653;28;8806;-57
2023/12/30 07:32:15;;;;;;;;;1.00;1.00;;;;;8.15;82.12;99521.09;5096196;28;9739;-58
2023/12/30 07:34:44;;;;;;;;;0.00;0.00;;;;;8.15;81.65;99513.16;5095606;28;8841;-58
2023/12/30 07:37:12;;;;;;;;;1.00;1.00;;;;;8.17;81.54;99519.22;5094605;28;8821;-57
2023/12/30 07:39:39;;;;;;;;;0.00;0.00;;;;;8.17;81.50;99518.34;5095822;28;9469;-59
2023/12/30 07:42:07;;;;;;;;;0.25;0.25;;;;;8.15;81.81;99528.22;5094148;28;8828;-58
2023/12/30 07:44:37;;;;;;;;;0.00;0.00;;;;;8.12;81.52;99525.81;5094492;28;8850;-57
2023/12/30 07:47:06;;;;;;;;;1.00;1.00;;;;;8.12;81.66;99523.16;5094139;28;8837;-59
2023/12/30 07:49:35;;;;;;;;;1.75;1.75;;;;;8.15;81.51;99526.41;5095352;28;8829;-59
2023/12/30 07:52:03;;;;;;;;;0.25;0.25;;;;;8.17;81.55;99534.25;5095793;28;8825;-57
2023/12/30 07:54:30;;;;;;;;;0.25;0.25;;;;;8.20;81.56;99534.91;5096734;28;8818;-57
2023/12/30 07:56:58;;;;;;;;;0.00;0.00;;;;;8.25;81.61;99543.38;5096363;28;9508;-59
2023/12/30 07:59:27;;;;;;;;;3.00;1.00;;;;;8.28;81.42;99545.78;5096639;28;8956;-59
2023/12/30 08:01:56;;;;;;;;;3.00;1.00;;;;;8.30;81.72;99548.31;5096653;28;8822;-57
2023/12/30 08:04:24;;;;;;;;;0.00;0.00;;;;;8.30;81.58;99557.09;5105592;28;8812;-57
2023/12/30 08:06:52;;;;;;;;;0.00;0.00;;;;;8.33;81.55;99556.88;5117024;28;8874;-60
2023/12/30 08:09:20;;;;;;;;;0.00;0.00;;;;;8.36;81.26;99558.47;5103515;28;8802;-57
2023/12/30 08:11:47;;;;;;;;;0.75;0.00;;;;;8.40;81.15;99560.75;5096640;28;8944;-57
2023/12/30 08:14:28;;;;;;;;;0.00;0.00;;;;;8.46;81.30;99559.44;5096278;28;8848;-58
2023/12/30 08:16:56;;;;;;;;;0.00;0.00;;;;;8.49;81.28;99565.34;5079384;28;8843;-59
2023/12/30 08:19:25;;;;;;;;;0.00;0.00;;;;;8.52;80.77;99565.09;5075445;28;8859;-57
2023/12/30 08:21:53;;;;;;;;;0.00;0.00;;;;;8.54;80.95;99567.66;5108545;28;8843;-57
2023/12/30 08:24:21;;;;;;;;;0.00;0.00;;;;;8.57;81.07;99565.59;5115887;28;8828;-57
2023/12/30 08:26:49;;;;;;;;;2.00;1.00;;;;;8.61;80.83;99576.81;5115423;28;8824;-59
2023/12/30 08:29:16;;;;;;;;;0.00;0.00;;;;;8.62;80.59;99574.06;5116014;28;8804;-58
2023/12/30 08:31:46;;;;;;;;;1.00;0.75;;;;;8.63;80.90;99564.28;5115859;28;8824;-58
2023/12/30 08:34:14;;;;;;;;;0.25;0.25;;;;;8.65;80.48;99568.50;5075815;28;8951;-58
2023/12/30 08:36:43;;;;;;;;;3.00;1.00;;;;;8.69;80.47;99575.28;5073721;28;8844;-58
2023/12/30 08:39:12;;;;;;;;;0.75;0.75;;;;;8.72;80.76;99579.47;5073668;28;8840;-59
2023/12/30 08:41:40;;;;;;;;;0.50;0.00;;;;;8.72;80.73;99575.03;5073576;28;8832;-57
2023/12/30 08:44:08;;;;;;;;;0.75;0.75;;;;;8.75;80.24;99573.94;5074004;28;8890;-57
2023/12/30 08:46:36;;;;;;;;;0.00;0.00;;;;;8.75;80.22;99580.09;5073925;28;8925;-58
2023/12/30 08:49:04;;;;;;;;;0.00;0.00;;;;;8.78;80.21;99585.16;5075346;28;8887;-58
2023/12/30 08:51:37;;;;;;;;;1.00;1.00;;;;;8.80;80.56;99590.38;5075272;28;8835;-59
2023/12/30 08:54:04;;;;;;;;;1.50;0.50;;;;;8.82;80.15;99591.09;5075423;28;8820;-58
2023/12/30 08:56:33;;;;;;;;;0.00;0.00;;;;;8.84;80.63;99583.84;5076122;28;8857;-57
2023/12/30 08:59:02;;;;;;;;;0.25;0.25;;;;;8.86;80.26;99585.41;5095292;28;8826;-58
2023/12/30 09:01:30;;;;;;;;;0.00;0.00;;;;;8.89;79.92;99584.34;5094829;28;8826;-59
2023/12/30 09:03:59;;;;;;;;;0.00;0.00;;;;;8.92;80.07;99590.25;5091958;28;8826;-58
2023/12/30 09:06:27;;;;;;;;;0.50;0.25;;;;;8.93;80.13;99597.25;5094490;28;8824;-60
2023/12/30 09:08:56;;;;;;;;;1.00;0.75;;;;;8.95;80.31;99591.81;5095547;28;8844;-58
2023/12/30 09:11:24;;;;;;;;;0.50;0.50;;;;;8.96;80.50;99599.66;5094707;28;8822;-58
2023/12/30 09:13:52;;;;;;;;;0.00;0.00;;;;;8.98;80.45;99608.34;5095089;28;8899;-57
2023/12/30 09:16:20;;;;;;;;;2.00;0.50;;;;;9.00;79.86;99601.13;5099380;28;8834;-56
2023/12/30 09:18:48;;;;;;;;;0.00;0.00;;;;;9.03;80.42;99611.47;5115545;28;8962;-57
2023/12/30 09:21:16;;;;;;;;;0.75;0.00;;;;;9.08;80.29;99622.59;5106803;28;8822;-58
2023/12/30 09:23:44;;;;;;;;;0.00;0.00;;;;;9.13;80.26;99620.41;5087764;28;8965;-60
2023/12/30 09:26:12;;;;;;;;;0.00;0.00;;;;;9.19;80.13;99619.09;5073798;28;8836;-58
2023/12/30 09:28:40;;;;;;;;;0.00;0.00;;;;;9.25;79.84;99616.78;5074046;28;8839;-57
2023/12/30 09:31:08;;;;;;;;;0.50;0.50;;;;;9.32;79.82;99617.13;5073830;28;8881;-58
2023/12/30 09:33:36;;;;;;;;;1.00;1.00;;;;;9.37;79.25;99626.47;5093558;28;8831;-60
2023/12/30 09:36:04;;;;;;;;;0.00;0.00;;;;;9.40;79.13;99622.69;5113913;28;8812;-60
2023/12/30 09:38:32;;;;;;;;;0.25;0.25;;;;;9.41;79.40;99627.06;5114259;28;8824;-59
2023/12/30 09:41:00;;;;;;;;;0.25;0.00;;;;;9.42;79.41;99629.56;5096867;28;8860;-59
2023/12/30 09:43:28;;;;;;;;;0.75;0.00;;;;;9.43;79.69;99636.56;5073537;28;8852;-59
2023/12/30 09:45:55;;;;;;;;;0.00;0.00;;;;;9.44;79.47;99638.28;5073738;28;8820;-59
2023/12/30 09:48:26;;;;;;;;;1.00;1.00;;;;;9.45;79.40;99632.00;5074035;28;8824;-58
2023/12/30 09:50:55;;;;;;;;;0.50;0.50;;;;;9.45;79.30;99639.13;5074686;28;8836;-58
2023/12/30 09:53:23;;;;;;;;;0.00;0.00;;;;;9.44;79.43;99638.28;5074005;28;10063;-57
2023/12/30 09:55:51;;;;;;;;;0.25;0.25;;;;;9.45;79.76;99634.66;5074569;28;8879;-58
2023/12/30 09:58:19;;;;;;;;;0.00;0.00;;;;;9.46;79.09;99636.34;5074315;28;8828;-59
2023/12/30 10:00:47;;;;;;;;;1.00;1.00;;;;;9.48;78.98;99638.91;5073213;28;8911;-58
2023/12/30 10:03:16;;;;;;;;;0.00;0.00;;;;;9.49;78.96;99633.44;5075011;28;8836;-57
2023/12/30 10:05:42;;;;;;;;;0.00;0.00;;;;;9.53;78.97;99639.34;5077195;28;8832;-58
2023/12/30 10:08:11;;;;;;;;;0.75;0.75;;;;;9.56;79.24;99642.59;5076954;28;8999;-60
2023/12/30 10:10:39;;;;;;;;;0.25;0.00;;;;;9.57;79.09;99627.50;5090381;28;8814;-60
2023/12/30 10:13:08;;;;;;;;;0.75;0.75;;;;;9.57;78.70;99633.66;5096801;28;8856;-59
2023/12/30 10:15:39;;;;;;;;;0.00;0.00;;;;;9.60;79.34;99636.09;5096210;28;9819;-59
2023/12/30 10:18:07;;;;;;;;;0.50;0.25;;;;;9.61;79.15;99631.59;5096197;28;8945;-57
2023/12/30 10:20:35;;;;;;;;;0.75;0.75;;;;;9.64;79.21;99631.38;5096664;28;8830;-57
2023/12/30 10:23:06;;;;;;;;;1.00;1.00;;;;;9.64;78.97;99618.91;5096896;28;8814;-57
2023/12/30 10:25:34;;;;;;;;;1.50;0.50;;;;;9.67;78.97;99623.13;5097648;28;8834;-59
2023/12/30 10:28:03;;;;;;;;;0.25;0.25;;;;;9.69;78.84;99627.38;5096960;28;8865;-57
2023/12/30 10:30:31;;;;;;;;;2.00;1.00;;;;;9.72;79.04;99627.09;5096377;28;8871;-57
2023/12/30 10:32:59;;;;;;;;;0.00;0.00;;;;;9.76;78.41;99631.22;5096687;28;8822;-60
2023/12/30 10:35:27;;;;;;;;;4.00;3.00;;;;;9.78;78.72;99626.63;5097063;28;8833;-58
2023/12/30 10:37:56;;;;;;;;;0.75;0.00;;;;;9.81;78.54;99625.53;5096894;28;8829;-58
2023/12/30 10:40:23;;;;;;;;;1.00;0.25;;;;;9.82;78.56;99609.44;5097117;28;8881;-58
2023/12/30 10:42:51;;;;;;;;;3.00;1.00;;;;;9.84;78.68;99609.31;5096507;28;8826;-58
2023/12/30 10:45:19;;;;;;;;;0.00;0.00;;;;;9.86;78.42;99610.88;5096772;28;8840;-59
2023/12/30 10:47:47;;;;;;;;;0.75;0.00;;;;;9.89;78.13;99604.47;5096159;28;8953;-59
2023/12/30 10:50:14;;;;;;;;;0.00;0.00;;;;;9.89;78.61;99605.31;5096749;28;8816;-58
2023/12/30 10:52:43;;;;;;;;;0.50;0.00;;;;;9.91;78.21;99600.72;5096655;28;8822;-60
2023/12/30 10:55:11;;;;;;;;;0.75;0.75;;;;;9.91;78.67;99594.53;5096820;28;8830;-58
2023/12/30 10:57:39;;;;;;;;;0.50;0.00;;;;;9.92;78.47;99591.75;5096180;28;8818;-58
2023/12/30 11:00:09;;;;;;;;;1.00;0.75;;;;;9.92;78.16;99599.75;5095682;28;8922;-58
2023/12/30 11:02:38;;;;;;;;;0.00;0.00;;;;;9.93;78.64;99604.09;5098854;28;8888;-60
2023/12/30 11:05:05;;;;;;;;;0.00;0.00;;;;;9.94;78.60;99604.94;5096189;28;8956;-57
2023/12/30 11:07:33;;;;;;;;;2.00;1.00;;;;;9.95;78.13;99610.13;5099350;28;8829;-59
2023/12/30 11:10:02;;;;;;;;;0.50;0.00;;;;;9.94;78.45;99605.75;5113548;28;8819;-59
2023/12/30 11:12:30;;;;;;;;;4.25;3.00;;;;;9.98;78.45;99609.03;5113662;28;8818;-59
2023/12/30 11:14:58;;;;;;;;;0.00;0.00;;;;;10.02;78.01;99619.28;5095397;28;8899;-60
2023/12/30 11:17:26;;;;;;;;;1.00;1.00;;;;;10.08;78.27;99617.97;5096923;28;8826;-58
2023/12/30 11:19:55;;;;;;;;;1.00;1.00;;;;;10.13;78.20;99605.97;5096651;28;8976;-58
2023/12/30 11:22:23;;;;;;;;;2.00;2.00;;;;;10.17;78.01;99602.06;5092610;28;8905;-59
2023/12/30 11:24:50;;;;;;;;;0.00;0.00;;;;;10.20;77.72;99601.84;5085748;28;8831;-59
2023/12/30 11:27:18;;;;;;;;;2.00;2.00;;;;;10.24;77.94;99605.91;5116642;28;8820;-60
2023/12/30 11:29:46;;;;;;;;;3.00;1.00;;;;;10.26;77.99;99606.63;5117428;28;8816;-58
2023/12/30 11:32:14;;;;;;;;;3.00;3.00;;;;;10.26;77.32;99595.97;5116926;28;8835;-60
2023/12/30 11:34:42;;;;;;;;;0.00;0.00;;;;;10.25;77.58;99604.13;5116638;28;8942;-58
2023/12/30 11:37:10;;;;;;;;;0.75;0.75;;;;;10.22;77.32;99599.88;5117143;28;8913;-59
2023/12/30 11:39:40;;;;;;;;;0.00;0.00;;;;;10.19;77.92;99600.16;5104070;28;8864;-57
2023/12/30 11:42:08;;;;;;;;;1.00;1.00;;;;;10.18;77.34;99600.28;5074669;28;8974;-58
2023/12/30 11:44:36;;;;;;;;;0.00;0.00;;;;;10.16;78.08;99607.53;5075416;28;8925;-59
2023/12/30 11:47:03;;;;;;;;;1.00;1.00;;;;;10.14;78.28;99602.34;5074667;28;8831;-57
2023/12/30 11:49:31;;;;;;;;;1.00;1.00;;;;;10.15;77.49;99604.03;5074651;28;8858;-58
2023/12/30 11:51:59;;;;;;;;;1.00;1.00;;;;;10.17;77.63;99596.75;5074362;28;9731;-59